createdAt,value
2023-04-16T06:23:37.208Z,291.30
2023-04-16T06:26:04.778Z,263.85
2023-04-16T06:28:31.619Z,277.85
2023-04-16T06:30:58.500Z,307.80
2023-04-16T06:33:25.379Z,264.27
2023-04-16T06:35:55.466Z,274.63
2023-04-16T06:38:22.308Z,311.58
2023-04-16T06:40:49.905Z,307.77
2023-04-16T06:43:17.926Z,274.17
2023-04-16T06:45:45.382Z,275.45
2023-04-16T06:48:12.186Z,265.17
2023-04-16T06:50:39.197Z,264.42
2023-04-16T06:53:06.062Z,245.82
2023-04-16T06:55:32.990Z,230.35
2023-04-16T06:58:02.773Z,221.45
2023-04-16T07:00:29.668Z,226.27
2023-04-16T07:02:58.416Z,208.18
2023-04-16T07:05:26.155Z,213.73
2023-04-16T07:07:53.062Z,205.68
2023-04-16T07:10:19.894Z,157.93
2023-04-16T07:12:46.773Z,202.32
2023-04-16T07:15:13.666Z,179.07
2023-04-16T07:17:40.528Z,183.45
2023-04-16T07:20:08.497Z,156.63
2023-04-16T07:22:35.350Z,147.95
2023-04-16T07:25:02.810Z,161.38
2023-04-16T07:27:29.853Z,177.82
2023-04-16T07:29:56.659Z,183.60
2023-04-16T07:32:24.027Z,160.88
2023-04-16T07:34:51.320Z,160.05
2023-04-16T07:37:18.150Z,164.57
2023-04-16T07:39:44.909Z,164.95
2023-04-16T07:42:11.753Z,163.40
2023-04-16T07:44:38.962Z,158.63
2023-04-16T07:47:05.946Z,152.82
2023-04-16T07:49:32.901Z,125.65
2023-04-16T07:51:59.749Z,146.75
2023-04-16T07:54:28.490Z,140.05
2023-04-16T07:56:56.037Z,134.05
2023-04-16T07:59:24.357Z,143.57
2023-04-16T08:01:54.003Z,134.32
2023-04-16T08:04:24.533Z,137.38
2023-04-16T08:06:52.116Z,120.50
2023-04-16T08:09:23.864Z,134.18
2023-04-16T08:11:50.914Z,104.53
2023-04-16T08:14:17.900Z,108.82
2023-04-16T08:16:44.962Z,110.28
2023-04-16T08:19:11.844Z,107.82
2023-04-16T08:21:38.805Z,88.13
2023-04-16T08:24:05.814Z,110.65
2023-04-16T08:26:32.474Z,104.43
2023-04-16T08:28:59.123Z,101.90
2023-04-16T08:31:26.015Z,83.55
2023-04-16T08:33:52.890Z,87.63
2023-04-16T08:36:19.568Z,91.70
2023-04-16T08:38:46.519Z,76.95
2023-04-16T08:41:13.987Z,88.60
2023-04-16T08:43:45.366Z,96.80
2023-04-16T08:46:13.106Z,98.47
2023-04-16T08:48:43.417Z,100.68
2023-04-16T08:51:11.926Z,86.47
2023-04-16T08:54:05.468Z,95.93
2023-04-16T08:56:34.654Z,93.63
2023-04-16T08:59:05.130Z,92.88
2023-04-16T09:01:36.113Z,89.43
2023-04-16T09:04:03.841Z,100.15
2023-04-16T09:06:31.462Z,91.10
2023-04-16T09:09:00.409Z,95.32
2023-04-16T09:11:27.409Z,89.55
2023-04-16T09:13:54.204Z,89.60
2023-04-16T09:16:21.497Z,82.40
2023-04-16T09:18:48.258Z,90.63
2023-04-16T09:21:15.901Z,82.78
2023-04-16T09:23:43.301Z,78.75
2023-04-16T09:26:10.328Z,87.35
2023-04-16T09:28:48.245Z,89.57
2023-04-16T09:31:16.813Z,80.63
2023-04-16T09:33:44.522Z,78.57
2023-04-16T09:36:11.399Z,94.75
2023-04-16T09:38:52.688Z,79.07
2023-04-16T09:41:24.164Z,71.22
2023-04-16T09:43:58.535Z,87.38
2023-04-16T09:46:36.156Z,71.30
2023-04-16T09:49:13.769Z,75.97
2023-04-16T09:51:45.073Z,70.25
2023-04-16T09:54:11.884Z,77.53
2023-04-16T09:56:46.451Z,68.22
2023-04-16T09:59:20.404Z,75.15
2023-04-16T10:01:49.398Z,72.75
2023-04-16T10:04:16.916Z,75.93
2023-04-16T10:06:44.135Z,69.85
2023-04-16T10:09:11.119Z,65.60
2023-04-16T10:11:38.292Z,66.38
2023-04-16T10:14:05.352Z,64.88
2023-04-16T10:16:32.918Z,64.25
2023-04-16T10:18:59.907Z,70.80
2023-04-16T10:21:33.561Z,67.10
2023-04-16T10:24:00.693Z,65.45
2023-04-16T10:26:28.964Z,63.75
2023-04-16T10:28:56.542Z,58.08
2023-04-16T10:31:23.599Z,64.57
2023-04-16T10:33:50.604Z,52.90
2023-04-16T10:36:23.572Z,57.92
2023-04-16T10:38:54.545Z,47.60
2023-04-16T10:41:21.232Z,55.13
2023-04-16T10:43:49.908Z,59.85
2023-04-16T10:46:23.972Z,47.47
2023-04-16T10:48:53.817Z,56.25
2023-04-16T10:51:27.647Z,53.70
2023-04-16T10:54:02.470Z,53.30
2023-04-16T10:56:31.775Z,59.00
2023-04-16T10:58:58.521Z,55.22
2023-04-16T11:01:35.281Z,52.58
2023-04-16T11:04:22.345Z,51.55
2023-04-16T11:07:11.521Z,52.58
2023-04-16T11:09:50.516Z,42.38
2023-04-16T11:12:22.404Z,48.17
2023-04-16T11:14:51.746Z,43.95
2023-04-16T11:17:20.129Z,41.25
2023-04-16T11:19:47.294Z,45.10
2023-04-16T11:22:17.130Z,44.55
2023-04-16T11:24:45.577Z,41.78
2023-04-16T11:27:16.025Z,38.92
2023-04-16T11:29:45.044Z,42.40
2023-04-16T11:32:22.383Z,39.97
2023-04-16T11:34:49.177Z,39.40
2023-04-16T11:37:18.881Z,40.95
2023-04-16T11:39:52.841Z,37.50
2023-04-16T11:42:23.161Z,41.83
2023-04-16T11:44:57.758Z,41.80
2023-04-16T11:47:25.022Z,47.47
2023-04-16T11:49:51.853Z,44.60
2023-04-16T11:52:35.237Z,51.70
2023-04-16T11:55:03.438Z,52.22
2023-04-16T11:57:31.887Z,47.88
2023-04-16T12:00:01.976Z,53.80
2023-04-16T12:02:44.150Z,52.65
2023-04-16T12:05:31.278Z,39.97
2023-04-16T12:08:00.084Z,40.17
2023-04-16T12:10:28.740Z,42.92
2023-04-16T12:13:16.701Z,45.60
2023-04-16T12:15:54.561Z,43.92
2023-04-16T12:18:23.078Z,43.97
2023-04-16T12:20:53.210Z,43.53
2023-04-16T12:23:28.467Z,40.10
2023-04-16T12:25:55.985Z,44.45
2023-04-16T12:28:33.438Z,38.13
2023-04-16T12:31:01.051Z,41.53
2023-04-16T12:33:27.977Z,40.03
2023-04-16T12:35:54.879Z,35.05
2023-04-16T12:38:24.094Z,38.22
2023-04-16T12:40:51.668Z,40.35
2023-04-16T12:43:19.634Z,35.67
2023-04-16T12:45:46.540Z,45.33
2023-04-16T12:48:13.261Z,35.05
2023-04-16T12:50:40.150Z,38.13
2023-04-16T12:53:07.000Z,32.67
2023-04-16T12:55:33.722Z,39.83
2023-04-16T12:58:00.963Z,36.40
2023-04-16T13:00:27.827Z,39.25
2023-04-16T13:02:54.636Z,39.75
2023-04-16T13:05:21.558Z,34.67
2023-04-16T13:07:48.274Z,39.65
2023-04-16T13:10:15.028Z,39.45
2023-04-16T13:12:41.763Z,35.20
2023-04-16T13:15:09.330Z,30.05
2023-04-16T13:17:36.198Z,29.60
2023-04-16T13:20:03.111Z,30.77
2023-04-16T13:22:29.903Z,34.35
2023-04-16T13:24:57.020Z,29.23
2023-04-16T13:27:23.937Z,33.63
2023-04-16T13:29:50.808Z,30.15
2023-04-16T13:32:18.825Z,32.33
2023-04-16T13:34:45.707Z,33.05
2023-04-16T13:37:13.168Z,31.83
2023-04-16T13:39:39.892Z,33.95
2023-04-16T13:42:06.640Z,33.50
2023-04-16T13:44:33.389Z,29.70
2023-04-16T13:47:00.243Z,29.80
2023-04-16T13:49:26.999Z,35.22
2023-04-16T13:51:53.666Z,32.28
2023-04-16T13:54:20.521Z,30.02
2023-04-16T13:56:47.203Z,27.45
2023-04-16T13:59:15.651Z,28.73
2023-04-16T14:01:42.466Z,27.80
2023-04-16T14:04:09.432Z,29.90
2023-04-16T14:06:36.316Z,27.40
2023-04-16T14:09:03.795Z,26.15
2023-04-16T14:11:31.033Z,27.33
2023-04-16T14:13:58.187Z,28.02
2023-04-16T14:16:25.015Z,30.35
2023-04-16T14:18:52.057Z,33.08
2023-04-16T14:21:19.060Z,30.77
2023-04-16T14:23:48.207Z,32.70
2023-04-16T14:26:15.495Z,30.52
2023-04-16T14:28:42.472Z,29.50
2023-04-16T14:31:12.169Z,30.40
2023-04-16T14:33:39.044Z,30.83
2023-04-16T14:36:06.377Z,29.80
2023-04-16T14:38:36.527Z,29.33
2023-04-16T14:41:03.509Z,29.55
2023-04-16T14:43:30.950Z,27.33
2023-04-16T14:45:58.990Z,27.33
2023-04-16T14:48:26.139Z,29.30
2023-04-16T14:50:56.065Z,26.00
2023-04-16T14:53:23.708Z,29.33
2023-04-16T14:55:51.957Z,28.15
2023-04-16T14:58:21.010Z,25.67
2023-04-16T15:00:47.853Z,24.58
2023-04-16T15:03:15.207Z,26.38
2023-04-16T15:05:44.667Z,29.70
2023-04-16T15:08:11.432Z,33.55
2023-04-16T15:10:38.216Z,30.55
2023-04-16T15:13:08.144Z,25.88
2023-04-16T15:15:35.536Z,28.42
2023-04-16T15:18:02.809Z,25.92
2023-04-16T15:20:33.141Z,26.67
2023-04-16T15:23:00.307Z,27.33
2023-04-16T15:25:27.158Z,28.67
2023-04-16T15:27:56.995Z,27.23
2023-04-16T15:30:24.014Z,28.35
2023-04-16T15:32:51.117Z,28.15
2023-04-16T15:35:21.063Z,29.50
2023-04-16T15:37:47.972Z,31.38
2023-04-16T15:40:20.982Z,31.13
2023-04-16T15:42:48.088Z,28.70
2023-04-16T15:45:15.161Z,31.83
2023-04-16T15:47:43.122Z,29.58
2023-04-16T15:50:10.426Z,25.98
2023-04-16T15:52:42.825Z,30.02
2023-04-16T15:55:09.990Z,26.95
2023-04-16T15:57:36.763Z,30.38
2023-04-16T16:00:16.972Z,31.63
2023-04-16T16:02:45.888Z,30.17
2023-04-16T16:05:14.303Z,29.35
2023-04-16T16:07:42.061Z,27.88
2023-04-16T16:17:34.099Z,36.33
2023-04-16T16:20:02.045Z,36.97
2023-04-16T16:22:29.968Z,36.08
2023-04-16T16:25:16.244Z,37.00
2023-04-16T16:32:40.425Z,37.90
2023-04-16T16:36:21.643Z,34.25
2023-04-16T16:42:25.828Z,34.83
2023-04-16T16:45:51.718Z,33.70
2023-04-16T16:49:08.506Z,32.58
2023-04-16T16:52:10.368Z,29.23
2023-04-16T16:55:04.144Z,27.85
2023-04-16T17:01:11.254Z,29.50
2023-04-16T17:03:39.466Z,29.77
2023-04-16T17:06:06.662Z,30.60
2023-04-16T17:08:33.489Z,24.88
2023-04-16T17:13:00.277Z,27.45
2023-04-16T17:15:28.537Z,28.05
2023-04-16T17:18:03.623Z,27.20
2023-04-16T17:20:34.381Z,30.67
2023-04-16T17:23:04.538Z,33.25
2023-04-16T17:25:37.148Z,31.58
2023-04-16T17:28:05.322Z,32.25
2023-04-16T17:30:38.225Z,32.08
2023-04-16T17:33:08.562Z,31.45
2023-04-16T17:35:37.057Z,36.30
2023-04-16T17:38:09.905Z,33.38
2023-04-16T17:40:43.195Z,33.55
2023-04-16T17:43:14.272Z,37.08
2023-04-16T17:45:45.471Z,31.92
2023-04-16T17:48:18.658Z,33.35
2023-04-16T17:50:52.030Z,37.63
2023-04-16T17:53:23.848Z,37.78
2023-04-16T17:55:56.723Z,34.70
2023-04-16T17:58:27.333Z,34.08
2023-04-16T18:00:57.705Z,35.95
2023-04-16T18:03:25.151Z,38.08
2023-04-16T18:05:53.605Z,37.00
2023-04-16T18:08:23.445Z,35.22
2023-04-16T18:10:55.766Z,36.92
2023-04-16T18:13:24.490Z,38.83
2023-04-16T18:15:53.940Z,36.28
2023-04-16T18:18:31.003Z,41.88
2023-04-16T18:21:03.891Z,37.40
2023-04-16T18:23:44.929Z,38.33
2023-04-16T18:26:12.785Z,41.05
2023-04-16T18:28:50.609Z,39.10
2023-04-16T18:31:21.488Z,35.63
2023-04-16T18:33:57.555Z,38.45
2023-04-16T18:36:30.363Z,34.80
2023-04-16T18:39:09.673Z,37.20
2023-04-16T18:41:46.116Z,37.40
2023-04-16T18:44:13.388Z,32.17
2023-04-16T18:46:48.742Z,35.53
2023-04-16T18:49:19.637Z,35.85
2023-04-16T18:51:56.749Z,36.92
2023-04-16T18:57:39.775Z,37.83
2023-04-16T19:00:15.658Z,39.13
2023-04-16T19:02:56.322Z,34.97
2023-04-16T19:17:38.563Z,34.10
2023-04-16T19:24:48.176Z,36.63
2023-04-16T19:48:58.029Z,33.88
2023-04-16T19:51:24.886Z,34.33
2023-04-16T19:53:52.729Z,35.33
2023-04-16T19:56:21.118Z,33.40
2023-04-16T19:58:47.993Z,37.17
2023-04-16T20:01:16.291Z,35.70
2023-04-16T20:03:43.218Z,33.33
2023-04-16T20:06:10.101Z,31.58
2023-04-16T20:08:37.013Z,33.88
2023-04-16T20:11:03.806Z,30.80
2023-04-16T20:13:30.782Z,35.88
2023-04-16T20:15:57.703Z,35.80
2023-04-16T20:18:28.095Z,32.90
2023-04-16T20:20:55.550Z,32.35
2023-04-16T20:23:22.553Z,29.13
2023-04-16T20:25:49.322Z,32.70
2023-04-16T20:28:18.068Z,33.47
2023-04-16T20:30:44.982Z,29.77
2023-04-16T20:33:14.488Z,33.17
2023-04-16T20:35:41.621Z,32.05
2023-04-16T20:38:08.542Z,29.38
2023-04-16T20:40:38.717Z,29.23
2023-04-16T20:43:09.989Z,29.42
2023-04-16T20:45:40.887Z,32.20
2023-04-16T20:48:08.231Z,29.20
2023-04-16T20:50:35.144Z,33.10
2023-04-16T20:53:01.910Z,28.33
2023-04-16T20:55:28.820Z,34.92
2023-04-16T20:57:55.595Z,34.80
2023-04-16T21:00:22.501Z,27.73
2023-04-16T21:02:49.396Z,28.90
2023-04-16T21:05:16.312Z,26.40
2023-04-16T21:07:43.540Z,32.58
2023-04-16T21:10:10.843Z,30.63
2023-04-16T21:12:37.674Z,31.50
2023-04-16T21:15:04.852Z,28.25
2023-04-16T21:17:31.799Z,23.45
2023-04-16T21:19:58.605Z,27.85
2023-04-16T21:22:25.417Z,29.95
2023-04-16T21:24:52.144Z,23.52
2023-04-16T21:27:18.900Z,22.80
2023-04-16T21:29:45.979Z,20.58
2023-04-16T21:32:12.684Z,18.98
2023-04-16T21:34:39.546Z,21.40
2023-04-16T21:37:06.744Z,18.42
2023-04-16T21:39:33.585Z,20.65
